Time;durP1;ratioP1;P1;durP2;ratioP2;P2;SDS_P1;SDS_P2;PMS_P1;PMS_P2;Temp;Humidity;BMP_temperature;BMP_pressure;BME280_temperature;BME280_humidity;BME280_pressure;Samples;Min_cycle;Max_cycle;Signal;HPM_P1;HPM_P2
2023/07/05 00:01:46;;;;;;;88.90;49.60;;;;;;;-128.00;-1.00;-1.00;97796;285;1003325;-34
2023/07/05 00:04:12;;;;;;;37.80;21.40;;;;;;;-128.00;-1.00;-1.00;97862;285;1003475;-32
2023/07/05 00:06:38;;;;;;;23.90;12.90;;;;;;;-128.00;-1.00;-1.00;97953;296;1003848;-30
2023/07/05 00:09:03;;;;;;;26.10;13.00;;;;;;;-128.00;-1.00;-1.00;97815;285;1003702;-34
2023/07/05 00:11:29;;;;;;;56.10;32.30;;;;;;;-128.00;-1.00;-1.00;97730;285;1003046;-30
2023/07/05 00:13:55;;;;;;;38.70;21.80;;;;;;;-128.00;-1.00;-1.00;97687;297;1004743;-30
2023/07/05 00:16:20;;;;;;;80.00;46.70;;;;;;;-128.00;-1.00;-1.00;97770;285;1003317;-34
2023/07/05 00:18:46;;;;;;;46.50;24.20;;;;;;;-128.00;-1.00;-1.00;97924;296;1002644;-32
2023/07/05 00:21:12;;;;;;;29.10;15.30;;;;;;;-128.00;-1.00;-1.00;97990;296;1002867;-30
2023/07/05 00:23:38;;;;;;;34.00;16.50;;;;;;;-128.00;-1.00;-1.00;97892;285;1003562;-30
2023/07/05 00:26:05;;;;;;;22.30;12.50;;;;;;;-128.00;-1.00;-1.00;97783;296;1003490;-34
2023/07/05 00:28:33;;;;;;;35.60;17.30;;;;;;;-128.00;-1.00;-1.00;97772;285;1004738;-31
2023/07/05 00:31:00;;;;;;;30.40;17.60;;;;;;;-128.00;-1.00;-1.00;97822;296;1002929;-29
2023/07/05 00:33:25;;;;;;;26.80;15.40;;;;;;;-128.00;-1.00;-1.00;97837;285;1003190;-30
2023/07/05 00:35:52;;;;;;;27.10;14.30;;;;;;;-128.00;-1.00;-1.00;97870;297;1002549;-32
2023/07/05 01:19:50;;;;;;;29.20;13.50;;;;;;;-99.84;18.38;19852.58;98401;294;1545399;-34
2023/07/05 01:22:42;;;;;;;16.60;10.70;;;;;;;-128.00;-1.00;-1.00;93390;295;3003059;-32
2023/07/05 01:25:25;;;;;;;26.50;12.20;;;;;;;-128.00;-1.00;-1.00;18522;306;7505059;-34
2023/07/05 01:28:14;;;;;;;20.80;12.00;;;;;;;-128.00;-1.00;-1.00;18514;293;7506168;-37
2023/07/05 01:30:57;;;;;;;30.10;14.30;;;;;;;-128.00;-1.00;-1.00;18490;306;7506045;-37
2023/07/05 01:33:28;;;;;;;27.60;14.60;;;;;;;-128.00;-1.00;-1.00;18478;294;7504511;-36
2023/07/05 01:35:53;;;;;;;30.60;15.60;;;;;;;-128.00;-1.00;-1.00;18509;346;7506649;-32
2023/07/05 01:38:19;;;;;;;27.00;13.90;;;;;;;-128.00;-1.00;-1.00;18517;293;7504472;-36
2023/07/05 01:40:55;;;;;;;30.40;16.10;;;;;;;-128.00;-1.00;-1.00;18938;294;7506031;-36
2023/07/05 01:43:21;;;;;;;30.90;15.20;;;;;;;-128.00;-1.00;-1.00;18466;294;7505852;-36
2023/07/05 01:46:01;;;;;;;20.60;10.30;;;;;;;-128.00;-1.00;-1.00;18478;294;7505687;-32
2023/07/05 01:48:45;;;;;;;21.50;11.90;;;;;;;-128.00;-1.00;-1.00;18494;294;7505238;-35
2023/07/05 01:51:17;;;;;;;23.50;12.70;;;;;;;-128.00;-1.00;-1.00;18495;287;7505117;-30
2023/07/05 01:54:09;;;;;;;19.50;10.90;;;;;;;-128.00;-1.00;-1.00;18492;334;7506407;-31
2023/07/05 01:56:50;;;;;;;17.30;11.10;;;;;;;-128.00;-1.00;-1.00;18482;294;7506011;-32
2023/07/05 01:59:16;;;;;;;18.70;11.90;;;;;;;-128.00;-1.00;-1.00;18471;335;7504749;-34
2023/07/05 02:01:42;;;;;;;26.20;12.70;;;;;;;-128.00;-1.00;-1.00;18491;294;7504692;-34
2023/07/05 02:04:09;;;;;;;27.30;13.90;;;;;;;-128.00;-1.00;-1.00;18510;294;7506292;-31
2023/07/05 02:06:35;;;;;;;24.90;13.10;;;;;;;-128.00;-1.00;-1.00;18504;335;7505978;-35
2023/07/05 02:09:01;;;;;;;21.50;9.60;;;;;;;-128.00;-1.00;-1.00;18507;335;7504132;-35
2023/07/05 02:11:26;;;;;;;20.20;12.10;;;;;;;-128.00;-1.00;-1.00;18472;294;7506179;-31
2023/07/05 02:13:52;;;;;;;26.30;13.60;;;;;;;-128.00;-1.00;-1.00;18886;294;7504833;-35
2023/07/05 02:16:19;;;;;;;41.60;12.10;;;;;;;-128.00;-1.00;-1.00;18882;294;7504998;-31
2023/07/05 02:18:45;;;;;;;24.60;13.50;;;;;;;-128.00;-1.00;-1.00;18898;294;7505058;-30
2023/07/05 02:21:11;;;;;;;24.90;13.90;;;;;;;-128.00;-1.00;-1.00;18901;294;7504360;-32
2023/07/05 02:23:37;;;;;;;29.00;14.80;;;;;;;-128.00;-1.00;-1.00;18879;294;7504378;-36
2023/07/05 02:26:05;;;;;;;30.10;16.00;;;;;;;-128.00;-1.00;-1.00;18882;318;7504477;-31
2023/07/05 02:28:31;;;;;;;36.50;16.70;;;;;;;-128.00;-1.00;-1.00;18500;335;7505201;-35
2023/07/05 02:30:57;;;;;;;32.20;17.70;;;;;;;-128.00;-1.00;-1.00;18470;294;7505214;-31
2023/07/05 02:33:23;;;;;;;44.50;20.70;;;;;;;-128.00;-1.00;-1.00;18896;290;7504473;-36
2023/07/05 02:35:49;;;;;;;30.30;15.40;;;;;;;-128.00;-1.00;-1.00;18874;294;7504942;-32
2023/07/05 02:38:15;;;;;;;24.00;13.90;;;;;;;-128.00;-1.00;-1.00;18882;294;7504419;-37
2023/07/05 02:40:47;;;;;;;19.70;11.60;;;;;;;-128.00;-1.00;-1.00;18874;294;7504508;-36
2023/07/05 02:43:13;;;;;;;24.40;13.80;;;;;;;-128.00;-1.00;-1.00;18467;346;7504469;-32
2023/07/05 02:45:38;;;;;;;32.60;18.30;;;;;;;-128.00;-1.00;-1.00;18469;294;7504443;-32
2023/07/05 02:48:05;;;;;;;32.30;17.90;;;;;;;-128.00;-1.00;-1.00;18870;294;7504327;-35
2023/07/05 02:50:31;;;;;;;33.80;17.70;;;;;;;-128.00;-1.00;-1.00;18860;294;7505321;-35
2023/07/05 02:52:57;;;;;;;36.10;20.00;;;;;;;-128.00;-1.00;-1.00;18859;294;7504300;-35
2023/07/05 02:55:23;;;;;;;42.10;22.40;;;;;;;-128.00;-1.00;-1.00;18889;294;7504564;-34
2023/07/05 02:57:49;;;;;;;51.70;29.90;;;;;;;-128.00;-1.00;-1.00;18913;306;7504639;-31
2023/07/05 03:00:16;;;;;;;58.00;31.90;;;;;;;-128.00;-1.00;-1.00;18859;294;7504594;-31
2023/07/05 03:02:42;;;;;;;41.30;23.70;;;;;;;-128.00;-1.00;-1.00;18886;294;7504916;-34
2023/07/05 03:05:09;;;;;;;45.90;23.20;;;;;;;-128.00;-1.00;-1.00;18872;294;7504338;-30
2023/07/05 03:07:35;;;;;;;53.70;21.00;;;;;;;-128.00;-1.00;-1.00;18513;294;7506116;-30
2023/07/05 03:10:01;;;;;;;40.00;19.00;;;;;;;-128.00;-1.00;-1.00;18483;294;7504695;-31
2023/07/05 03:12:26;;;;;;;36.90;20.50;;;;;;;-128.00;-1.00;-1.00;18461;294;7505239;-35
2023/07/05 03:14:52;;;;;;;48.10;25.70;;;;;;;-128.00;-1.00;-1.00;18860;294;7504781;-32
2023/07/05 03:17:19;;;;;;;56.40;23.60;;;;;;;-128.00;-1.00;-1.00;18874;294;7505687;-31
2023/07/05 03:19:45;;;;;;;53.80;25.10;;;;;;;-128.00;-1.00;-1.00;18865;294;7504676;-35
2023/07/05 03:22:11;;;;;;;48.80;24.00;;;;;;;-128.00;-1.00;-1.00;18880;294;7505333;-32
2023/07/05 03:24:38;;;;;;;48.40;22.80;;;;;;;-128.00;-1.00;-1.00;18872;294;7504484;-34
2023/07/05 03:27:03;;;;;;;41.60;20.60;;;;;;;-128.00;-1.00;-1.00;41858;295;7504666;-35
2023/07/05 03:29:29;;;;;;;33.60;18.20;;;;;;;-128.00;-1.00;-1.00;97798;294;1003161;-30
2023/07/05 03:31:57;;;;;;;45.20;20.60;;;;;;;-128.00;-1.00;-1.00;60978;294;7503949;-31
2023/07/05 03:34:22;;;;;;;46.00;23.20;;;;;;;-128.00;-1.00;-1.00;18467;335;7505366;-32
2023/07/05 03:36:48;;;;;;;42.20;22.00;;;;;;;-128.00;-1.00;-1.00;18883;294;7504500;-36
2023/07/05 03:39:15;;;;;;;42.10;22.10;;;;;;;-128.00;-1.00;-1.00;18865;294;7505541;-32
2023/07/05 03:41:41;;;;;;;39.70;22.40;;;;;;;-128.00;-1.00;-1.00;18863;294;7505798;-32
2023/07/05 03:44:09;;;;;;;40.90;18.30;;;;;;;-128.00;-1.00;-1.00;25183;294;7504299;-35
2023/07/05 03:46:35;;;;;;;32.30;18.50;;;;;;;-128.00;-1.00;-1.00;80867;294;4503231;-32
2023/07/05 03:49:00;;;;;;;47.10;20.30;;;;;;;-128.00;-1.00;-1.00;98008;294;1003283;-31
2023/07/05 03:51:26;;;;;;;46.70;22.00;;;;;;;-128.00;-1.00;-1.00;48664;294;4503529;-35
2023/07/05 03:53:56;;;;;;;46.70;22.00;;;;;;;-128.00;-1.00;-1.00;21880;294;7504976;-31
2023/07/05 03:56:22;;;;;;;34.40;18.00;;;;;;;-128.00;-1.00;-1.00;76595;294;7504716;-32
2023/07/05 03:58:48;;;;;;;24.90;15.30;;;;;;;-128.00;-1.00;-1.00;89418;294;7354113;-34
2023/07/05 04:01:17;;;;;;;31.70;19.80;;;;;;;-128.00;-1.00;-1.00;97770;294;1003055;-30
2023/07/05 04:03:48;;;;;;;45.50;17.70;;;;;;;-128.00;-1.00;-1.00;97825;294;1003567;-34
2023/07/05 04:06:14;;;;;;;35.20;16.10;;;;;;;-128.00;-1.00;-1.00;97814;294;1003459;-34
2023/07/05 04:08:40;;;;;;;27.50;16.40;;;;;;;-128.00;-1.00;-1.00;97884;294;1004398;-30
2023/07/05 04:11:05;;;;;;;35.30;15.50;;;;;;;-128.00;-1.00;-1.00;98148;283;1003597;-30
2023/07/05 04:13:31;;;;;;;24.70;15.60;;;;;;;-128.00;-1.00;-1.00;97833;294;1005001;-34
2023/07/05 04:16:02;;;;;;;25.30;15.00;;;;;;;-128.00;-1.00;-1.00;97940;294;1003305;-29
2023/07/05 04:18:28;;;;;;;25.40;14.70;;;;;;;-128.00;-1.00;-1.00;97819;294;1003069;-33
2023/07/05 04:20:54;;;;;;;24.10;13.00;;;;;;;-128.00;-1.00;-1.00;97845;294;1003156;-36
2023/07/05 04:23:20;;;;;;;23.00;14.20;;;;;;;-128.00;-1.00;-1.00;97985;294;1002938;-30
2023/07/05 04:25:47;;;;;;;27.30;14.90;;;;;;;-128.00;-1.00;-1.00;98014;294;1004000;-30
2023/07/05 04:28:13;;;;;;;56.30;15.50;;;;;;;-128.00;-1.00;-1.00;97852;294;1003241;-35
2023/07/05 04:30:38;;;;;;;29.00;15.80;;;;;;;-128.00;-1.00;-1.00;97819;294;1002548;-35
2023/07/05 04:33:04;;;;;;;38.00;15.40;;;;;;;-128.00;-1.00;-1.00;97945;294;1003182;-37
2023/07/05 04:35:30;;;;;;;25.00;15.80;;;;;;;-128.00;-1.00;-1.00;97921;294;1004117;-30
2023/07/05 04:37:55;;;;;;;30.80;15.30;;;;;;;-128.00;-1.00;-1.00;97898;294;1002889;-35
2023/07/05 04:40:21;;;;;;;29.00;13.70;;;;;;;-128.00;-1.00;-1.00;97842;286;1003464;-35
2023/07/05 04:42:47;;;;;;;25.40;13.20;;;;;;;-128.00;-1.00;-1.00;97805;294;1003743;-34
2023/07/05 04:45:13;;;;;;;24.20;12.70;;;;;;;-128.00;-1.00;-1.00;97856;294;1004227;-36
2023/07/05 04:47:38;;;;;;;25.00;15.40;;;;;;;-128.00;-1.00;-1.00;97783;294;1005194;-32
2023/07/05 04:50:05;;;;;;;25.80;13.40;;;;;;;-128.00;-1.00;-1.00;97777;294;1003943;-36
2023/07/05 04:52:30;;;;;;;23.40;11.60;;;;;;;-128.00;-1.00;-1.00;97824;294;1003276;-32
2023/07/05 04:54:56;;;;;;;27.30;14.50;;;;;;;-128.00;-1.00;-1.00;98008;294;1003393;-33
2023/07/05 04:57:22;;;;;;;22.60;12.60;;;;;;;-128.00;-1.00;-1.00;97885;294;1003202;-30
2023/07/05 04:59:51;;;;;;;40.30;13.60;;;;;;;-128.00;-1.00;-1.00;98108;294;1003251;-30
2023/07/05 05:02:18;;;;;;;42.60;14.80;;;;;;;-128.00;-1.00;-1.00;97953;294;1004834;-33
2023/07/05 05:04:44;;;;;;;22.60;11.60;;;;;;;-128.00;-1.00;-1.00;97877;294;1004420;-32
2023/07/05 05:07:10;;;;;;;26.30;14.10;;;;;;;-128.00;-1.00;-1.00;98007;294;1003667;-31
2023/07/05 05:09:36;;;;;;;30.80;12.60;;;;;;;-128.00;-1.00;-1.00;98057;294;1005496;-31
2023/07/05 05:12:02;;;;;;;26.30;14.70;;;;;;;-128.00;-1.00;-1.00;97993;294;1003908;-31
2023/07/05 05:14:28;;;;;;;24.20;12.90;;;;;;;-128.00;-1.00;-1.00;97799;294;1003182;-36
2023/07/05 05:16:54;;;;;;;31.70;12.50;;;;;;;-128.00;-1.00;-1.00;97877;294;1002506;-36
2023/07/05 05:19:20;;;;;;;22.70;12.50;;;;;;;-128.00;-1.00;-1.00;97977;294;1004269;-35
2023/07/05 05:21:45;;;;;;;22.70;14.40;;;;;;;-128.00;-1.00;-1.00;97786;294;1003622;-34
2023/07/05 05:24:11;;;;;;;20.20;12.00;;;;;;;-128.00;-1.00;-1.00;97947;294;1004874;-30
2023/07/05 05:26:39;;;;;;;23.30;13.80;;;;;;;-128.00;-1.00;-1.00;98022;294;1002817;-31
2023/07/05 05:29:05;;;;;;;22.70;13.50;;;;;;;-128.00;-1.00;-1.00;98014;294;1005288;-33
2023/07/05 05:31:31;;;;;;;27.50;13.60;;;;;;;-128.00;-1.00;-1.00;97906;294;1003878;-34
2023/07/05 05:33:57;;;;;;;21.60;11.90;;;;;;;-128.00;-1.00;-1.00;97912;294;1004101;-31
2023/07/05 05:36:24;;;;;;;15.70;10.80;;;;;;;-128.00;-1.00;-1.00;97826;294;1003863;-36
2023/07/05 05:38:49;;;;;;;17.80;12.40;;;;;;;-128.00;-1.00;-1.00;97810;294;1004227;-31
2023/07/05 05:41:15;;;;;;;18.80;11.10;;;;;;;-128.00;-1.00;-1.00;97861;294;1003674;-35
2023/07/05 05:43:41;;;;;;;21.20;12.90;;;;;;;-128.00;-1.00;-1.00;98088;294;1003882;-31
2023/07/05 05:46:07;;;;;;;19.40;11.70;;;;;;;-128.00;-1.00;-1.00;97854;294;1003642;-35
2023/07/05 05:48:33;;;;;;;18.90;12.70;;;;;;;-128.00;-1.00;-1.00;97857;294;1003996;-37
2023/07/05 05:50:59;;;;;;;16.50;11.10;;;;;;;-128.00;-1.00;-1.00;97805;294;1003699;-31
2023/07/05 05:53:25;;;;;;;17.70;11.50;;;;;;;-128.00;-1.00;-1.00;97841;294;1003244;-30
2023/07/05 05:55:50;;;;;;;14.90;10.80;;;;;;;-128.00;-1.00;-1.00;97829;294;1003310;-30
2023/07/05 05:58:16;;;;;;;21.10;11.70;;;;;;;-128.00;-1.00;-1.00;97952;294;1003092;-37
2023/07/05 06:00:41;;;;;;;20.50;12.20;;;;;;;-128.00;-1.00;-1.00;97962;294;1002968;-35
2023/07/05 06:03:07;;;;;;;19.30;11.20;;;;;;;-128.00;-1.00;-1.00;97880;294;1003961;-31
2023/07/05 06:05:33;;;;;;;16.80;10.90;;;;;;;-128.00;-1.00;-1.00;97801;294;1003489;-30
2023/07/05 06:07:59;;;;;;;17.60;13.00;;;;;;;-128.00;-1.00;-1.00;97880;294;1003393;-37
2023/07/05 06:10:25;;;;;;;16.80;11.40;;;;;;;-128.00;-1.00;-1.00;97960;295;1003707;-32
2023/07/05 06:12:50;;;;;;;18.80;10.30;;;;;;;-128.00;-1.00;-1.00;97965;287;1003193;-35
2023/07/05 06:15:16;;;;;;;19.90;11.50;;;;;;;-128.00;-1.00;-1.00;97897;294;1003869;-32
2023/07/05 06:17:42;;;;;;;15.00;8.90;;;;;;;-128.00;-1.00;-1.00;97952;294;1003596;-32
2023/07/05 06:20:08;;;;;;;15.40;10.80;;;;;;;-128.00;-1.00;-1.00;97901;294;1003825;-32
2023/07/05 06:22:34;;;;;;;17.60;11.80;;;;;;;-128.00;-1.00;-1.00;97881;294;1002614;-32
2023/07/05 06:25:00;;;;;;;18.80;10.40;;;;;;;-128.00;-1.00;-1.00;98039;294;1004991;-34
2023/07/05 06:27:27;;;;;;;17.20;10.70;;;;;;;-128.00;-1.00;-1.00;98099;294;1003217;-34
2023/07/05 06:29:52;;;;;;;19.50;10.50;;;;;;;-128.00;-1.00;-1.00;97962;286;1004065;-30
2023/07/05 06:32:18;;;;;;;19.20;10.70;;;;;;;-128.00;-1.00;-1.00;97887;294;1003330;-37
2023/07/05 06:34:44;;;;;;;18.40;11.40;;;;;;;-128.00;-1.00;-1.00;97915;294;1003654;-31
2023/07/05 06:37:09;;;;;;;13.90;8.20;;;;;;;-128.00;-1.00;-1.00;97810;294;1003505;-32
2023/07/05 06:39:36;;;;;;;18.60;10.20;;;;;;;-128.00;-1.00;-1.00;97866;294;1003703;-32
2023/07/05 06:42:02;;;;;;;13.30;9.70;;;;;;;-128.00;-1.00;-1.00;98071;294;1003217;-39
2023/07/05 06:44:28;;;;;;;10.10;7.70;;;;;;;-128.00;-1.00;-1.00;98037;294;1004054;-31
2023/07/05 06:46:53;;;;;;;11.40;8.10;;;;;;;-128.00;-1.00;-1.00;97859;294;1003677;-33
2023/07/05 06:49:20;;;;;;;12.80;8.80;;;;;;;-128.00;-1.00;-1.00;98019;294;1004750;-35
2023/07/05 06:51:46;;;;;;;15.70;9.20;;;;;;;-128.00;-1.00;-1.00;97860;294;1003043;-31
2023/07/05 06:54:12;;;;;;;9.80;7.50;;;;;;;-128.00;-1.00;-1.00;97905;282;1003951;-33
2023/07/05 06:56:38;;;;;;;16.50;8.90;;;;;;;-128.00;-1.00;-1.00;97958;294;1003371;-35
2023/07/05 06:59:03;;;;;;;14.00;7.10;;;;;;;-128.00;-1.00;-1.00;97875;294;1003318;-32
2023/07/05 07:01:29;;;;;;;10.60;7.80;;;;;;;-128.00;-1.00;-1.00;97859;286;1003021;-32
2023/07/05 07:03:54;;;;;;;12.00;8.70;;;;;;;-128.00;-1.00;-1.00;97978;286;1003848;-34
2023/07/05 07:06:20;;;;;;;10.30;8.60;;;;;;;-128.00;-1.00;-1.00;97974;294;1003334;-36
2023/07/05 07:08:46;;;;;;;9.40;7.10;;;;;;;-128.00;-1.00;-1.00;97891;294;1004263;-31
2023/07/05 07:11:12;;;;;;;7.60;6.30;;;;;;;-128.00;-1.00;-1.00;98036;294;1005125;-38
2023/07/05 07:13:38;;;;;;;10.30;6.50;;;;;;;-128.00;-1.00;-1.00;97942;294;1004316;-31
2023/07/05 07:16:08;;;;;;;9.80;6.50;;;;;;;-128.00;-1.00;-1.00;97856;294;1003200;-35
2023/07/05 07:18:36;;;;;;;10.20;6.30;;;;;;;-128.00;-1.00;-1.00;98036;294;1003412;-32
2023/07/05 07:21:02;;;;;;;13.60;5.20;;;;;;;-128.00;-1.00;-1.00;97864;294;1003214;-35
2023/07/05 07:23:28;;;;;;;6.80;3.80;;;;;;;-128.00;-1.00;-1.00;97938;294;1003581;-32
2023/07/05 07:25:59;;;;;;;8.20;4.60;;;;;;;-128.00;-1.00;-1.00;97882;294;1002893;-35
2023/07/05 07:28:27;;;;;;;6.30;4.10;;;;;;;-128.00;-1.00;-1.00;97833;294;1002910;-34
2023/07/05 07:30:52;;;;;;;7.70;4.50;;;;;;;-128.00;-1.00;-1.00;97967;294;1002998;-36
2023/07/05 07:33:18;;;;;;;5.90;5.00;;;;;;;-128.00;-1.00;-1.00;98048;294;1003759;-32
2023/07/05 07:35:44;;;;;;;5.60;3.90;;;;;;;-128.00;-1.00;-1.00;97826;294;1003148;-35
2023/07/05 07:38:09;;;;;;;12.50;4.30;;;;;;;-128.00;-1.00;-1.00;97826;294;1004634;-32
2023/07/05 07:40:38;;;;;;;6.90;4.50;;;;;;;-128.00;-1.00;-1.00;98035;282;1004155;-35
2023/07/05 07:43:07;;;;;;;3.30;2.70;;;;;;;-128.00;-1.00;-1.00;97973;294;1003882;-37
2023/07/05 07:45:33;;;;;;;5.20;3.90;;;;;;;-128.00;-1.00;-1.00;98125;294;1004258;-36
2023/07/05 07:47:58;;;;;;;9.80;3.80;;;;;;;-128.00;-1.00;-1.00;97880;294;1003534;-33
2023/07/05 07:50:25;;;;;;;6.10;3.20;;;;;;;-128.00;-1.00;-1.00;97844;294;1003340;-36
2023/07/05 07:52:50;;;;;;;5.90;4.00;;;;;;;-128.00;-1.00;-1.00;97960;294;1003659;-33
2023/07/05 07:55:16;;;;;;;13.00;3.30;;;;;;;-128.00;-1.00;-1.00;97951;294;1003026;-32
2023/07/05 07:57:42;;;;;;;5.50;3.10;;;;;;;-128.00;-1.00;-1.00;97812;294;1003563;-32
2023/07/05 08:00:10;;;;;;;4.80;3.30;;;;;;;-128.00;-1.00;-1.00;97903;294;1003426;-32
2023/07/05 08:02:37;;;;;;;7.20;3.70;;;;;;;-128.00;-1.00;-1.00;98091;294;1003331;-32
2023/07/05 08:05:04;;;;;;;3.50;2.50;;;;;;;-128.00;-1.00;-1.00;97841;294;1003614;-35
2023/07/05 08:07:31;;;;;;;9.30;3.90;;;;;;;-128.00;-1.00;-1.00;97832;294;1003041;-31
2023/07/05 08:09:57;;;;;;;4.40;2.70;;;;;;;-128.00;-1.00;-1.00;97912;294;1003396;-32
2023/07/05 08:12:23;;;;;;;5.50;4.30;;;;;;;-128.00;-1.00;-1.00;97864;294;1003499;-31
2023/07/05 08:14:49;;;;;;;4.30;3.40;;;;;;;-128.00;-1.00;-1.00;97970;294;1004894;-33
2023/07/05 08:17:15;;;;;;;5.50;3.10;;;;;;;-128.00;-1.00;-1.00;98055;294;1003021;-31
2023/07/05 08:19:41;;;;;;;4.20;1.80;;;;;;;-128.00;-1.00;-1.00;97902;294;1003325;-31
2023/07/05 08:22:07;;;;;;;3.80;2.70;;;;;;;-128.00;-1.00;-1.00;98074;294;1005108;-35
2023/07/05 08:24:32;;;;;;;5.60;2.70;;;;;;;-128.00;-1.00;-1.00;98019;294;1005085;-32
2023/07/05 08:26:59;;;;;;;4.10;2.50;;;;;;;-128.00;-1.00;-1.00;97851;294;1004247;-31
2023/07/05 08:29:25;;;;;;;2.70;2.40;;;;;;;-128.00;-1.00;-1.00;97826;294;1003018;-31
2023/07/05 08:31:50;;;;;;;4.40;2.90;;;;;;;-128.00;-1.00;-1.00;98027;294;1003927;-31
2023/07/05 08:34:16;;;;;;;3.80;2.50;;;;;;;-128.00;-1.00;-1.00;97855;294;1003158;-35
2023/07/05 08:36:42;;;;;;;4.70;3.00;;;;;;;-128.00;-1.00;-1.00;97880;294;1004103;-35
2023/07/05 08:39:07;;;;;;;4.80;3.00;;;;;;;-128.00;-1.00;-1.00;97970;294;1003544;-32
2023/07/05 08:41:48;;;;;;;4.70;2.70;;;;;;;-128.00;-1.00;-1.00;97909;294;1003184;-32
2023/07/05 08:44:44;;;;;;;5.20;3.30;;;;;;;-128.00;-1.00;-1.00;97821;283;1003614;-34
2023/07/05 08:47:32;;;;;;;3.40;2.30;;;;;;;-128.00;-1.00;-1.00;97958;294;1002403;-32
2023/07/05 08:50:06;;;;;;;9.50;3.20;;;;;;;-128.00;-1.00;-1.00;97866;294;1003316;-31
2023/07/05 08:52:35;;;;;;;5.10;3.20;;;;;;;-128.00;-1.00;-1.00;97838;294;1003471;-32
2023/07/05 08:55:04;;;;;;;3.00;2.50;;;;;;;-128.00;-1.00;-1.00;98061;294;1002802;-35
2023/07/05 08:57:40;;;;;;;4.00;3.50;;;;;;;-128.00;-1.00;-1.00;97871;294;1003468;-36
2023/07/05 09:00:11;;;;;;;5.70;4.20;;;;;;;-128.00;-1.00;-1.00;98008;294;1003842;-33
2023/07/05 09:02:37;;;;;;;4.70;2.30;;;;;;;-128.00;-1.00;-1.00;97880;294;1002673;-32
2023/07/05 09:05:09;;;;;;;3.50;2.90;;;;;;;-128.00;-1.00;-1.00;97893;294;1003081;-34
2023/07/05 09:07:50;;;;;;;7.70;3.90;;;;;;;-128.00;-1.00;-1.00;97911;294;1004115;-35
2023/07/05 09:10:35;;;;;;;6.50;3.70;;;;;;;-128.00;-1.00;-1.00;97868;294;1003225;-35
2023/07/05 09:13:10;;;;;;;5.50;2.90;;;;;;;-128.00;-1.00;-1.00;97784;294;1003520;-31
2023/07/05 09:15:38;;;;;;;3.00;2.60;;;;;;;-128.00;-1.00;-1.00;97905;294;1005062;-31
2023/07/05 09:18:26;;;;;;;5.40;3.50;;;;;;;-128.00;-1.00;-1.00;97966;282;1003085;-35
2023/07/05 09:21:14;;;;;;;4.10;3.40;;;;;;;-128.00;-1.00;-1.00;97955;294;1004637;-31
2023/07/05 09:23:53;;;;;;;3.80;2.40;;;;;;;-128.00;-1.00;-1.00;97377;294;1003899;-37
2023/07/05 09:26:29;;;;;;;4.20;3.30;;;;;;;-128.00;-1.00;-1.00;97106;294;1002904;-32
2023/07/05 09:29:07;;;;;;;3.00;2.50;;;;;;;-128.00;-1.00;-1.00;97840;294;1005088;-35
2023/07/05 09:31:33;;;;;;;10.70;3.10;;;;;;;-128.00;-1.00;-1.00;97821;294;1003781;-35
2023/07/05 09:34:16;;;;;;;5.60;3.00;;;;;;;-128.00;-1.00;-1.00;97956;294;1004446;-35
2023/07/05 09:36:41;;;;;;;;;;;;;;;-128.00;-1.00;-1.00;98089;294;1004346;-31
2023/07/05 09:39:19;;;;;;;;;;;;;;;-128.00;-1.00;-1.00;97860;294;1004307;-31
2023/07/05 09:41:47;;;;;;;3.80;3.10;;;;;;;-128.00;-1.00;-1.00;97859;294;1004757;-39
2023/07/05 09:44:13;;;;;;;3.00;2.20;;;;;;;-128.00;-1.00;-1.00;98050;294;1003471;-33
2023/07/05 09:46:39;;;;;;;3.60;2.30;;;;;;;-128.00;-1.00;-1.00;97940;294;1003093;-35
2023/07/05 09:49:17;;;;;;;2.60;2.20;;;;;;;-128.00;-1.00;-1.00;97968;294;1003787;-36
2023/07/05 09:51:45;;;;;;;2.30;2.00;;;;;;;-128.00;-1.00;-1.00;97830;294;1005447;-32
2023/07/05 09:54:20;;;;;;;2.60;1.60;;;;;;;-128.00;-1.00;-1.00;97964;294;1004173;-35
2023/07/05 09:56:59;;;;;;;2.70;2.30;;;;;;;-128.00;-1.00;-1.00;97867;294;1004257;-32
2023/07/05 09:59:25;;;;;;;5.00;2.90;;;;;;;-128.00;-1.00;-1.00;97849;286;1004322;-36
2023/07/05 10:01:53;;;;;;;3.40;2.50;;;;;;;-128.00;-1.00;-1.00;98000;294;1003332;-32
2023/07/05 10:04:20;;;;;;;3.20;2.00;;;;;;;-128.00;-1.00;-1.00;97946;294;1002896;-35
2023/07/05 10:06:46;;;;;;;5.20;2.70;;;;;;;-128.00;-1.00;-1.00;98069;294;1004213;-35
2023/07/05 10:09:15;;;;;;;6.10;2.60;;;;;;;-128.00;-1.00;-1.00;97862;294;1003529;-31
2023/07/05 10:11:45;;;;;;;6.30;2.40;;;;;;;-128.00;-1.00;-1.00;97914;294;1005149;-35
2023/07/05 10:14:13;;;;;;;3.40;2.50;;;;;;;-128.00;-1.00;-1.00;98044;294;1003013;-31
2023/07/05 10:16:45;;;;;;;3.40;2.40;;;;;;;-128.00;-1.00;-1.00;97793;294;1003393;-31
2023/07/05 10:19:28;;;;;;;2.20;2.00;;;;;;;-128.00;-1.00;-1.00;97867;294;1003199;-35
2023/07/05 10:22:08;;;;;;;4.10;3.20;;;;;;;-128.00;-1.00;-1.00;97823;294;1003084;-31
2023/07/05 10:24:40;;;;;;;3.50;2.00;;;;;;;-128.00;-1.00;-1.00;97878;294;1003472;-36
2023/07/05 10:27:25;;;;;;;2.10;1.70;;;;;;;-128.00;-1.00;-1.00;97875;286;1004442;-31
2023/07/05 10:30:03;;;;;;;4.20;2.50;;;;;;;-128.00;-1.00;-1.00;97842;294;1002756;-31
2023/07/05 10:32:36;;;;;;;2.00;1.80;;;;;;;-128.00;-1.00;-1.00;97937;294;1002905;-31
2023/07/05 10:35:02;;;;;;;2.20;1.50;;;;;;;-128.00;-1.00;-1.00;97790;282;1002803;-31
2023/07/05 10:37:33;;;;;;;2.40;1.60;;;;;;;-128.00;-1.00;-1.00;97856;294;1005510;-35
2023/07/05 10:40:03;;;;;;;3.00;1.60;;;;;;;-128.00;-1.00;-1.00;97845;294;1004571;-35
2023/07/05 10:42:29;;;;;;;2.20;1.60;;;;;;;-128.00;-1.00;-1.00;97910;294;1002784;-37
2023/07/05 10:44:55;;;;;;;6.80;2.20;;;;;;;-128.00;-1.00;-1.00;98017;284;1003340;-38
2023/07/05 10:47:21;;;;;;;2.50;1.50;;;;;;;-128.00;-1.00;-1.00;97953;294;1003512;-32
2023/07/05 10:49:51;;;;;;;3.00;1.80;;;;;;;-128.00;-1.00;-1.00;97988;294;1003749;-31
2023/07/05 10:52:17;;;;;;;6.90;1.80;;;;;;;-128.00;-1.00;-1.00;97899;294;1004416;-32
2023/07/05 10:54:59;;;;;;;4.00;1.70;;;;;;;-128.00;-1.00;-1.00;98077;294;1003459;-35
2023/07/05 10:57:37;;;;;;;;;;;;;;;-128.00;-1.00;-1.00;98060;294;1003767;-31
2023/07/05 11:00:39;;;;;;;4.10;1.00;;;;;;;-128.00;-1.00;-1.00;98016;294;1003822;-35
2023/07/05 11:03:21;;;;;;;1.80;1.30;;;;;;;-128.00;-1.00;-1.00;97881;294;1003094;-31
2023/07/05 11:05:49;;;;;;;1.10;1.00;;;;;;;-128.00;-1.00;-1.00;97947;286;1003410;-31
2023/07/05 11:08:26;;;;;;;1.60;1.40;;;;;;;-128.00;-1.00;-1.00;98003;294;1003488;-33
2023/07/05 11:10:52;;;;;;;3.00;2.20;;;;;;;-128.00;-1.00;-1.00;98032;294;1003646;-30
2023/07/05 11:13:18;;;;;;;2.70;1.90;;;;;;;-128.00;-1.00;-1.00;97787;294;1002804;-36
2023/07/05 11:15:44;;;;;;;2.50;1.30;;;;;;;-128.00;-1.00;-1.00;97824;294;1003570;-35
2023/07/05 11:18:17;;;;;;;2.40;1.70;;;;;;;-128.00;-1.00;-1.00;97953;294;1002799;-35
2023/07/05 11:20:46;;;;;;;2.00;1.60;;;;;;;-128.00;-1.00;-1.00;97972;294;1004406;-37
2023/07/05 11:23:13;;;;;;;2.90;2.00;;;;;;;-128.00;-1.00;-1.00;98007;294;1004356;-33
2023/07/05 11:25:56;;;;;;;2.60;1.10;;;;;;;-128.00;-1.00;-1.00;97962;294;1003405;-37
2023/07/05 11:28:41;;;;;;;2.60;1.60;;;;;;;-128.00;-1.00;-1.00;97925;294;1003795;-35
2023/07/05 11:31:09;;;;;;;3.20;1.70;;;;;;;-128.00;-1.00;-1.00;97896;294;1003523;-35
2023/07/05 11:33:35;;;;;;;2.70;1.50;;;;;;;-128.00;-1.00;-1.00;97877;294;1005365;-31
2023/07/05 11:36:08;;;;;;;2.80;1.70;;;;;;;-128.00;-1.00;-1.00;98038;294;1003500;-31
2023/07/05 11:38:59;;;;;;;2.70;0.90;;;;;;;-128.00;-1.00;-1.00;98056;294;1003304;-33
2023/07/05 11:41:26;;;;;;;8.30;1.70;;;;;;;-128.00;-1.00;-1.00;97761;294;1004273;-36
2023/07/05 11:44:01;;;;;;;4.70;1.40;;;;;;;-128.00;-1.00;-1.00;97878;294;1004014;-30
2023/07/05 11:46:40;;;;;;;1.90;1.60;;;;;;;-128.00;-1.00;-1.00;97914;294;1003793;-31
2023/07/05 11:49:31;;;;;;;3.60;1.80;;;;;;;-128.00;-1.00;-1.00;97936;294;1002956;-35
2023/07/05 11:52:17;;;;;;;3.20;2.00;;;;;;;-128.00;-1.00;-1.00;97954;294;1004039;-31
2023/07/05 11:54:51;;;;;;;4.30;2.30;;;;;;;-128.00;-1.00;-1.00;97851;294;1003147;-31
2023/07/05 11:57:16;;;;;;;2.90;1.80;;;;;;;-128.00;-1.00;-1.00;97921;294;1003616;-37
2023/07/05 11:59:46;;;;;;;2.20;1.70;;;;;;;-128.00;-1.00;-1.00;97914;294;1002959;-33
2023/07/05 12:02:29;;;;;;;4.00;2.10;;;;;;;-128.00;-1.00;-1.00;97853;294;1003754;-36
2023/07/05 12:04:57;;;;;;;6.00;0.70;;;;;;;-128.00;-1.00;-1.00;98042;294;1004418;-31
2023/07/05 12:07:24;;;;;;;1.10;0.70;;;;;;;-128.00;-1.00;-1.00;97932;294;1004991;-37
2023/07/05 12:09:50;;;;;;;1.70;0.80;;;;;;;-128.00;-1.00;-1.00;98014;294;1004373;-31
2023/07/05 12:12:16;;;;;;;0.70;0.40;;;;;;;-128.00;-1.00;-1.00;97819;294;1004567;-33
2023/07/05 12:14:43;;;;;;;1.30;0.50;;;;;;;-128.00;-1.00;-1.00;97965;294;1004270;-32